createdAt,value
2017-07-05T00:02:23.455Z,99.90
2017-07-05T00:04:51.692Z,99.90
2017-07-05T00:07:19.943Z,99.90
2017-07-05T00:09:48.267Z,99.90
2017-07-05T00:12:16.514Z,99.90
2017-07-05T00:17:46.299Z,99.90
2017-07-05T00:20:14.537Z,99.90
2017-07-05T00:22:42.769Z,99.90
2017-07-05T00:31:11.919Z,99.90
2017-07-05T00:36:41.234Z,99.90
2017-07-05T00:39:09.458Z,99.90
2017-07-05T00:41:37.687Z,99.90
2017-07-05T00:44:12.710Z,99.90
2017-07-05T00:46:40.929Z,99.90
2017-07-05T00:49:09.165Z,99.90
2017-07-05T00:51:37.481Z,99.90
2017-07-05T00:54:05.711Z,99.90
2017-07-05T00:56:33.926Z,99.90
2017-07-05T00:59:02.209Z,99.90
2017-07-05T01:01:30.426Z,99.90
2017-07-05T01:03:58.646Z,99.90
2017-07-05T01:09:28.734Z,99.90
2017-07-05T01:14:57.265Z,99.90
2017-07-05T01:17:26.256Z,99.90
2017-07-05T01:20:12.467Z,99.90
2017-07-05T01:22:40.709Z,99.90
2017-07-05T01:25:08.928Z,99.90
2017-07-05T01:27:37.223Z,99.90
2017-07-05T01:30:05.460Z,99.90
2017-07-05T01:32:33.692Z,99.90
2017-07-05T01:35:32.386Z,99.90
2017-07-05T01:38:00.641Z,99.90
2017-07-05T01:43:29.024Z,99.90
2017-07-05T01:49:11.807Z,99.90
2017-07-05T01:51:40.054Z,99.90
2017-07-05T01:54:08.268Z,99.90
2017-07-05T01:56:37.322Z,99.90
2017-07-05T01:59:05.553Z,99.90
2017-07-05T02:01:33.800Z,99.90
2017-07-05T02:04:02.888Z,99.90
2017-07-05T02:06:31.111Z,99.90
2017-07-05T02:08:59.337Z,99.90
2017-07-05T02:11:27.941Z,99.90
2017-07-05T02:13:56.936Z,99.90
2017-07-05T02:16:25.158Z,99.90
2017-07-05T02:22:13.634Z,99.90
2017-07-05T02:24:41.858Z,99.90
2017-07-05T02:27:10.084Z,99.90
2017-07-05T02:29:38.376Z,99.90
2017-07-05T02:32:13.081Z,99.90
2017-07-05T02:34:41.355Z,99.90
2017-07-05T02:40:10.743Z,99.90
2017-07-05T02:42:38.971Z,99.90
2017-07-05T02:45:07.197Z,99.90
2017-07-05T02:53:37.369Z,99.90
2017-07-05T02:56:05.587Z,99.90
2017-07-05T02:58:33.826Z,99.90
2017-07-05T03:01:02.132Z,99.90
2017-07-05T03:03:30.385Z,99.90
2017-07-05T03:05:58.614Z,99.90
2017-07-05T03:08:26.926Z,99.90
2017-07-05T03:10:55.153Z,99.90
2017-07-05T03:13:24.160Z,99.90
2017-07-05T03:16:11.968Z,99.90
2017-07-05T03:19:10.982Z,99.90
2017-07-05T03:21:40.009Z,99.90
2017-07-05T03:24:08.250Z,99.90
2017-07-05T03:26:37.243Z,99.90
2017-07-05T03:29:06.282Z,99.90
2017-07-05T03:31:34.510Z,99.90
2017-07-05T03:34:02.736Z,99.90
2017-07-05T03:36:31.013Z,99.90
2017-07-05T03:38:59.240Z,99.90
2017-07-05T03:41:27.467Z,99.90
2017-07-05T03:47:13.205Z,99.90
2017-07-05T03:49:41.416Z,99.90
2017-07-05T03:52:09.630Z,99.90
2017-07-05T03:54:37.934Z,99.90
2017-07-05T03:57:13.689Z,99.90
2017-07-05T03:59:41.965Z,99.90
2017-07-05T04:02:10.210Z,99.90
2017-07-05T04:04:38.460Z,99.90
2017-07-05T04:07:07.114Z,99.90
2017-07-05T04:12:36.301Z,99.90
2017-07-05T04:15:04.546Z,99.90
2017-07-05T04:17:32.814Z,99.90
2017-07-05T04:20:01.094Z,99.90
2017-07-05T04:22:29.341Z,99.90
2017-07-05T04:24:57.563Z,99.90
2017-07-05T04:27:25.843Z,99.90
2017-07-05T04:29:54.118Z,99.90
2017-07-05T04:32:22.372Z,99.90
2017-07-05T04:34:50.647Z,99.90
2017-07-05T04:37:18.866Z,99.90
2017-07-05T04:39:53.689Z,99.90
2017-07-05T04:42:22.682Z,99.90
2017-07-05T04:44:51.662Z,99.90
2017-07-05T04:47:20.717Z,99.90
2017-07-05T04:49:48.944Z,99.90
2017-07-05T04:52:17.935Z,99.90
2017-07-05T04:54:46.979Z,99.90
2017-07-05T04:57:15.218Z,99.90
2017-07-05T04:59:43.451Z,99.90
2017-07-05T05:02:11.736Z,99.90
2017-07-05T05:04:39.968Z,99.90
2017-07-05T05:07:12.051Z,99.90
2017-07-05T05:09:40.277Z,99.90
2017-07-05T05:16:16.781Z,99.90
2017-07-05T05:18:45.093Z,99.90
2017-07-05T05:21:13.324Z,99.90
2017-07-05T05:23:41.587Z,99.90
2017-07-05T05:29:10.538Z,99.90
2017-07-05T05:31:38.763Z,99.90
2017-07-05T05:34:13.861Z,99.90
2017-07-05T05:36:42.084Z,99.90
2017-07-05T05:41:54.767Z,99.90
2017-07-05T05:44:23.013Z,99.90
2017-07-05T05:46:51.295Z,99.90
2017-07-05T05:52:19.504Z,99.90
2017-07-05T05:54:47.746Z,99.90
2017-07-05T05:57:15.985Z,99.90
2017-07-05T05:59:44.386Z,99.90
2017-07-05T06:02:13.440Z,99.90
2017-07-05T06:04:41.675Z,99.90
2017-07-05T06:07:10.055Z,99.90
2017-07-05T06:09:38.284Z,99.90
2017-07-05T06:12:07.285Z,99.90
2017-07-05T06:14:36.406Z,99.90
2017-07-05T06:17:12.666Z,99.90
2017-07-05T06:19:40.964Z,99.90
2017-07-05T06:22:09.189Z,99.90
2017-07-05T06:24:37.439Z,99.90
2017-07-05T06:27:05.727Z,99.90
2017-07-05T06:32:34.435Z,99.90
2017-07-05T06:35:02.663Z,99.90
2017-07-05T06:37:30.899Z,99.90
2017-07-05T06:39:59.944Z,99.90
2017-07-05T06:42:28.194Z,99.90
2017-07-05T06:57:12.183Z,99.90
2017-07-05T07:05:43.645Z,99.90
2017-07-05T07:17:14.373Z,99.90
2017-07-05T07:20:10.742Z,99.90
2017-07-05T07:25:42.922Z,99.90
2017-07-05T07:28:11.165Z,99.90
2017-07-05T07:30:40.180Z,99.90
2017-07-05T07:33:08.497Z,99.90
2017-07-05T07:35:36.759Z,99.90
2017-07-05T07:38:04.983Z,98.40
2017-07-05T07:40:34.032Z,99.90
2017-07-05T07:43:02.276Z,99.90
2017-07-05T07:45:30.556Z,97.80
2017-07-05T07:47:58.863Z,99.90
2017-07-05T07:50:27.097Z,99.90
2017-07-05T07:52:56.102Z,98.30
2017-07-05T07:55:24.384Z,98.10
2017-07-05T07:57:52.672Z,97.50
2017-07-05T08:00:20.938Z,99.90
2017-07-05T08:02:49.229Z,97.90
2017-07-05T08:05:17.489Z,97.50
2017-07-05T08:10:45.909Z,99.30
2017-07-05T08:13:14.137Z,99.90
2017-07-05T08:15:43.123Z,98.50
2017-07-05T08:18:12.257Z,96.90
2017-07-05T08:20:40.470Z,96.90
2017-07-05T08:23:08.706Z,98.20
2017-07-05T08:25:37.003Z,95.70
2017-07-05T08:28:11.831Z,93.00
2017-07-05T08:30:40.107Z,93.70
2017-07-05T08:33:08.356Z,95.80
2017-07-05T08:35:36.596Z,94.50
2017-07-05T08:38:05.317Z,94.70
2017-07-05T08:40:33.545Z,92.70
2017-07-05T08:43:01.785Z,92.30
2017-07-05T08:45:30.061Z,92.50
2017-07-05T08:47:58.296Z,93.30
2017-07-05T08:50:26.513Z,93.20
2017-07-05T08:52:54.786Z,93.00
2017-07-05T08:55:23.039Z,89.40
2017-07-05T08:57:51.295Z,91.90
2017-07-05T09:00:19.577Z,91.60
2017-07-05T09:02:47.868Z,94.80
2017-07-05T09:05:16.127Z,88.50
2017-07-05T09:07:44.406Z,88.00
2017-07-05T09:10:12.636Z,91.50
2017-07-05T09:12:40.893Z,92.20
2017-07-05T09:15:09.317Z,91.80
2017-07-05T09:17:37.571Z,84.60
2017-07-05T09:20:05.812Z,84.90
2017-07-05T09:22:34.091Z,89.20
2017-07-05T09:25:02.311Z,84.00
2017-07-05T09:27:30.540Z,83.40
2017-07-05T09:29:58.825Z,84.80
2017-07-05T09:35:30.753Z,82.00
2017-07-05T09:38:11.544Z,87.10
2017-07-05T09:40:39.812Z,90.60
2017-07-05T09:43:08.043Z,80.40
2017-07-05T09:45:36.281Z,81.80
2017-07-05T09:48:12.862Z,80.60
2017-07-05T09:50:41.105Z,78.40
2017-07-05T09:53:09.358Z,76.10
2017-07-05T09:55:38.395Z,79.50
2017-07-05T09:58:06.646Z,79.20
2017-07-05T10:03:35.617Z,81.00
2017-07-05T10:06:03.863Z,79.50
2017-07-05T10:08:32.095Z,74.60
2017-07-05T10:11:00.368Z,78.00
2017-07-05T10:13:29.371Z,79.10
2017-07-05T10:15:57.640Z,79.70
2017-07-05T10:21:26.532Z,84.80
2017-07-05T10:23:55.533Z,74.90
2017-07-05T10:26:25.319Z,77.90
2017-07-05T10:29:13.212Z,78.00
2017-07-05T10:31:41.488Z,75.70
2017-07-05T10:34:09.743Z,81.70
2017-07-05T10:36:37.985Z,81.00
2017-07-05T10:39:06.332Z,77.30
2017-07-05T10:44:35.478Z,74.40
2017-07-05T10:47:03.709Z,75.40
2017-07-05T10:49:31.968Z,77.20
2017-07-05T10:52:00.270Z,73.90
2017-07-05T10:54:28.592Z,78.40
2017-07-05T10:56:57.603Z,77.40
2017-07-05T10:59:25.949Z,76.30
2017-07-05T11:01:54.206Z,70.80
2017-07-05T11:04:22.464Z,72.00
2017-07-05T11:06:50.764Z,74.80
2017-07-05T11:09:19.004Z,81.20
2017-07-05T11:11:47.236Z,73.30
2017-07-05T11:14:16.295Z,79.80
2017-07-05T11:16:44.543Z,79.00
2017-07-05T11:19:12.788Z,77.80
2017-07-05T11:21:41.878Z,78.20
2017-07-05T11:24:10.881Z,79.00
2017-07-05T11:26:39.891Z,76.60
2017-07-05T11:29:28.662Z,76.50
2017-07-05T11:31:56.895Z,77.10
2017-07-05T11:34:25.919Z,90.80
2017-07-05T11:36:54.269Z,90.80
2017-07-05T11:39:23.275Z,92.90
2017-07-05T11:41:52.286Z,91.90
2017-07-05T11:44:20.587Z,91.70
2017-07-05T11:46:48.811Z,91.20
2017-07-05T11:49:17.814Z,91.30
2017-07-05T11:54:46.581Z,91.50
2017-07-05T11:57:14.858Z,90.20
2017-07-05T11:59:43.109Z,90.90
2017-07-05T12:02:11.400Z,90.40
2017-07-05T12:04:39.636Z,91.10
2017-07-05T12:10:10.065Z,91.30
2017-07-05T12:12:38.313Z,91.90
2017-07-05T12:15:06.558Z,91.60
2017-07-05T12:17:34.862Z,91.00
2017-07-05T12:20:13.292Z,91.20
2017-07-05T12:22:42.573Z,91.60
2017-07-05T12:25:13.764Z,91.50
2017-07-05T12:27:42.069Z,92.90
2017-07-05T12:30:10.302Z,92.00
2017-07-05T12:32:38.549Z,91.50
2017-07-05T12:35:06.902Z,91.40
2017-07-05T12:37:35.127Z,91.60
2017-07-05T12:43:04.959Z,91.20
2017-07-05T12:45:33.199Z,91.20
2017-07-05T12:48:01.421Z,91.40
2017-07-05T12:53:29.827Z,91.90
2017-07-05T12:55:58.084Z,92.80
2017-07-05T12:58:26.377Z,92.80
2017-07-05T13:00:54.712Z,92.50
2017-07-05T13:03:23.734Z,94.60
2017-07-05T13:05:51.983Z,94.60
2017-07-05T13:08:21.062Z,96.50
2017-07-05T13:10:49.287Z,96.40
2017-07-05T13:13:17.505Z,96.10
2017-07-05T13:15:45.810Z,98.60
2017-07-05T13:18:14.857Z,94.10
2017-07-05T13:21:11.688Z,94.10
2017-07-05T13:23:39.931Z,93.70
2017-07-05T13:26:08.950Z,93.90
2017-07-05T13:28:37.246Z,93.90
2017-07-05T13:31:12.916Z,94.90
2017-07-05T13:33:41.212Z,94.90
2017-07-05T13:36:10.234Z,94.70
2017-07-05T13:38:38.465Z,94.80
2017-07-05T13:41:06.765Z,95.30
2017-07-05T13:46:36.263Z,95.00
2017-07-05T13:49:12.663Z,95.00
2017-07-05T13:51:41.042Z,94.90
2017-07-05T13:54:09.262Z,94.60
2017-07-05T13:56:37.495Z,94.30
2017-07-05T14:02:05.834Z,94.60
2017-07-05T14:04:34.069Z,94.10
2017-07-05T14:07:02.300Z,94.30
2017-07-05T14:09:30.597Z,94.30
2017-07-05T14:11:59.593Z,94.30
2017-07-05T14:14:28.591Z,93.90
2017-07-05T14:17:11.923Z,94.20
2017-07-05T14:19:40.172Z,94.10
2017-07-05T14:22:08.392Z,94.00
2017-07-05T14:33:37.781Z,93.60
2017-07-05T14:36:06.006Z,93.40
2017-07-05T14:38:34.998Z,93.60
2017-07-05T14:41:04.352Z,93.70
2017-07-05T14:43:32.611Z,93.70
2017-07-05T14:46:00.841Z,93.10
2017-07-05T14:48:29.892Z,93.60
2017-07-05T14:50:58.129Z,93.60
2017-07-05T14:53:26.360Z,93.40
2017-07-05T14:58:56.356Z,93.10
2017-07-05T15:01:24.581Z,93.10
2017-07-05T15:03:52.815Z,93.00
2017-07-05T15:12:43.456Z,92.90
2017-07-05T15:15:11.763Z,92.30
2017-07-05T15:17:39.995Z,92.20
2017-07-05T15:20:08.388Z,92.80
2017-07-05T15:22:36.605Z,92.60
2017-07-05T15:25:05.616Z,92.20
2017-07-05T15:27:33.902Z,92.20
2017-07-05T15:30:02.154Z,91.90
2017-07-05T15:32:31.152Z,91.10
2017-07-05T15:34:59.445Z,91.10
2017-07-05T15:37:27.680Z,92.10
2017-07-05T15:39:55.908Z,92.10
2017-07-05T15:42:24.416Z,92.50
2017-07-05T15:44:52.671Z,92.10
2017-07-05T15:47:20.908Z,92.30
2017-07-05T15:49:49.189Z,91.90
2017-07-05T15:52:17.422Z,92.10
2017-07-05T15:54:45.639Z,90.90
2017-07-05T15:57:13.925Z,91.00
2017-07-05T15:59:42.150Z,91.60
2017-07-05T16:08:13.321Z,88.50
2017-07-05T16:10:41.557Z,87.40
2017-07-05T16:13:09.829Z,87.40
2017-07-05T16:21:19.685Z,90.20
2017-07-05T16:23:48.709Z,90.20
2017-07-05T16:26:16.935Z,90.20
2017-07-05T16:28:45.263Z,90.10
2017-07-05T16:31:13.485Z,89.30
2017-07-05T16:33:41.702Z,88.10
2017-07-05T16:36:13.776Z,89.80
2017-07-05T16:38:41.998Z,89.90
2017-07-05T16:41:10.233Z,89.80
2017-07-05T16:43:38.558Z,89.10
2017-07-05T16:46:12.542Z,89.30
2017-07-05T16:48:40.846Z,89.10
2017-07-05T16:51:09.075Z,87.20
2017-07-05T16:53:37.418Z,87.20
2017-07-05T16:56:05.750Z,87.80
2017-07-05T17:01:34.489Z,86.40
2017-07-05T17:04:03.501Z,88.00
2017-07-05T17:06:31.731Z,88.00
2017-07-05T17:09:00.032Z,88.60
2017-07-05T17:11:29.036Z,83.30
2017-07-05T17:13:57.291Z,83.50
2017-07-05T17:16:25.632Z,86.70
2017-07-05T17:18:53.917Z,86.90
2017-07-05T17:21:22.154Z,79.50
2017-07-05T17:24:03.426Z,81.00
2017-07-05T17:29:32.372Z,84.30
2017-07-05T17:35:14.573Z,84.60
2017-07-05T17:38:02.007Z,85.20
2017-07-05T17:43:31.257Z,83.00
2017-07-05T17:52:13.979Z,81.80
2017-07-05T17:55:12.667Z,84.70
2017-07-05T17:57:40.983Z,83.20
2017-07-05T18:03:09.617Z,80.60
2017-07-05T18:06:04.811Z,83.00
2017-07-05T18:17:35.073Z,80.50
2017-07-05T18:23:27.286Z,78.80
2017-07-05T18:25:56.855Z,78.80
2017-07-05T18:28:52.386Z,80.90
2017-07-05T18:31:20.622Z,79.90
2017-07-05T18:45:58.115Z,82.10
2017-07-05T18:57:29.210Z,88.40
2017-07-05T19:02:59.433Z,88.50
2017-07-05T19:05:27.690Z,88.50
2017-07-05T19:07:55.916Z,88.80
2017-07-05T19:10:24.234Z,89.20
2017-07-05T19:12:52.455Z,89.30
2017-07-05T19:15:21.448Z,89.80
2017-07-05T19:20:50.497Z,90.10
2017-07-05T19:23:18.730Z,90.50
2017-07-05T19:25:47.001Z,90.40
2017-07-05T19:28:16.122Z,90.60
2017-07-05T19:31:11.065Z,90.60
2017-07-05T19:36:39.224Z,90.80
2017-07-05T19:39:07.482Z,90.90
2017-07-05T19:41:35.728Z,91.00
2017-07-05T19:44:04.065Z,91.60
2017-07-05T19:46:32.310Z,91.30
2017-07-05T19:49:01.349Z,91.40
2017-07-05T19:51:29.630Z,91.50
2017-07-05T19:53:57.883Z,91.60
2017-07-05T19:56:26.133Z,91.80
2017-07-05T19:58:54.445Z,91.90
2017-07-05T20:04:23.691Z,91.80
2017-07-05T20:06:51.974Z,92.00
2017-07-05T20:09:20.206Z,92.10
2017-07-05T20:11:48.497Z,92.20
2017-07-05T20:14:16.740Z,92.40
2017-07-05T20:16:44.992Z,92.60
2017-07-05T20:19:14.051Z,92.80
2017-07-05T20:21:42.289Z,92.80
2017-07-05T20:24:10.518Z,93.00
2017-07-05T20:26:38.832Z,93.00
2017-07-05T20:29:07.064Z,93.10
2017-07-05T20:31:35.315Z,93.30
2017-07-05T20:34:03.668Z,93.40
2017-07-05T20:36:31.891Z,93.50
2017-07-05T20:39:00.136Z,93.70
2017-07-05T20:41:28.445Z,93.80
2017-07-05T20:46:57.379Z,94.00
2017-07-05T20:49:26.383Z,94.30
2017-07-05T20:51:54.624Z,94.30
2017-07-05T20:54:23.687Z,94.50
2017-07-05T20:56:51.908Z,94.50
2017-07-05T20:59:20.902Z,94.80
2017-07-05T21:01:49.963Z,94.90
2017-07-05T21:04:18.989Z,95.00
2017-07-05T21:06:47.980Z,95.10
2017-07-05T21:09:19.074Z,95.20
2017-07-05T21:11:47.343Z,95.20
2017-07-05T21:14:15.584Z,95.30
2017-07-05T21:17:11.381Z,95.50
2017-07-05T21:19:39.607Z,95.50
2017-07-05T21:22:07.823Z,95.60
2017-07-05T21:24:36.079Z,95.80
2017-07-05T21:27:04.310Z,96.00
2017-07-05T21:29:32.536Z,96.00
2017-07-05T21:32:01.697Z,96.10
2017-07-05T21:34:29.923Z,96.30
2017-07-05T21:36:58.136Z,96.50
2017-07-05T21:39:26.391Z,96.50
2017-07-05T21:41:55.417Z,96.90
2017-07-05T21:44:23.636Z,96.80
2017-07-05T21:46:51.906Z,96.90
2017-07-05T21:49:20.139Z,97.00
2017-07-05T21:51:48.368Z,97.20
2017-07-05T21:54:17.395Z,97.50
2017-07-05T21:56:45.623Z,97.40
2017-07-05T21:59:13.872Z,97.60
2017-07-05T22:01:42.126Z,97.70
2017-07-05T22:04:10.355Z,98.00
2017-07-05T22:09:39.528Z,98.10
2017-07-05T22:12:17.578Z,98.10
2017-07-05T22:14:46.622Z,99.00
2017-07-05T22:17:14.857Z,98.90
2017-07-05T22:20:12.040Z,99.50
2017-07-05T22:22:46.741Z,99.50
2017-07-05T22:25:15.808Z,99.40
2017-07-05T22:27:44.032Z,99.40
2017-07-05T22:30:13.368Z,99.70
2017-07-05T22:32:41.658Z,99.40
2017-07-05T22:38:10.625Z,99.90
2017-07-05T22:40:38.868Z,99.90
2017-07-05T22:43:07.869Z,99.90
2017-07-05T22:45:36.949Z,99.90
2017-07-05T22:48:13.413Z,99.90
2017-07-05T22:50:41.666Z,99.90
2017-07-05T22:56:09.919Z,99.90
2017-07-05T23:04:39.663Z,99.90
2017-07-05T23:07:14.124Z,99.90
2017-07-05T23:12:43.100Z,99.90
2017-07-05T23:15:11.320Z,99.90
2017-07-05T23:17:39.556Z,99.90
2017-07-05T23:20:13.715Z,99.90
2017-07-05T23:22:41.937Z,99.90
2017-07-05T23:25:10.178Z,99.90
2017-07-05T23:27:39.215Z,99.90
2017-07-05T23:39:10.121Z,99.90
2017-07-05T23:41:38.362Z,99.90
2017-07-05T23:44:13.481Z,99.90
2017-07-05T23:46:42.487Z,99.90
2017-07-05T23:49:10.712Z,99.90
2017-07-05T23:51:38.982Z,99.90
2017-07-05T23:54:07.205Z,99.90
2017-07-05T23:56:41.324Z,99.90
2017-07-05T23:59:13.222Z,99.90
